CheckWX is a tool to help pilots better visualize weather data.  It is not intended as a substitute for an official pre-flight weather briefing.

20:33:44 UTC

WSSL TAF
Seletar Airport
Seletar, Singapore
TAF WSSL 221700Z 2218/2400 33008KT 9999 FEW015 SCT020 TEMPO 2307/2310 3000 TSRA FEW012CB BKN015

Mar-22@
18:00 UTC

Mar-22 @ 18:00 UTC

Mar-24@
00:00 UTC

Mar-24 @ 00:00 UTC

TAF WSSL 221700Z 2218/2400 33008KT 9999 FEW015 SCT020
Wind
  • 330° at 8 KTS
Cloud Levels
  • Few at 1,500' AGL
  • Scattered at 2,000' AGL

Mar-23@
07:00 UTC

Mar-23 @ 07:00 UTC

Mar-23@
10:00 UTC

Mar-23 @ 10:00 UTC

TEMPO 2307/2310 3000 TSRA FEW012CB BKN015

Temporary

Temporary Changes expected for less than half the time period

Conditions
Thunderstorm, Rain
Cloud Levels
  • Few at 1,200' AGL
  • Broken at 1,500' AGL